Time;durP1;ratioP1;P1;durP2;ratioP2;P2;SDS_P1;SDS_P2;PMS_P1;PMS_P2;Temp;Humidity;BMP_temperature;BMP_pressure;BME280_temperature;BME280_humidity;BME280_pressure;Samples;Min_cycle;Max_cycle;Signal;HPM_P1;HPM_P2
2021/10/14 00:01:55;;;;;;;23.48;14.15;;;10.90;99.90;;;;;;5113705;28;20365;-54
2021/10/14 00:04:20;;;;;;;26.55;14.73;;;10.90;99.90;;;;;;5094740;28;20039;-54
2021/10/14 00:06:46;;;;;;;24.58;12.48;;;10.80;99.90;;;;;;5093577;28;20459;-56
2021/10/14 00:09:14;;;;;;;36.45;14.32;;;10.90;99.90;;;;;;5094791;28;20095;-56
2021/10/14 00:11:40;;;;;;;28.48;13.40;;;10.90;99.90;;;;;;5075268;28;20039;-56
2021/10/14 00:14:06;;;;;;;27.17;12.85;;;10.90;99.90;;;;;;5093632;28;20024;-56
2021/10/14 00:16:32;;;;;;;25.80;12.48;;;10.90;99.90;;;;;;5093610;28;20035;-57
2021/10/14 00:18:59;;;;;;;28.95;12.63;;;10.90;99.90;;;;;;5095013;28;20040;-54
2021/10/14 00:21:25;;;;;;;23.58;12.50;;;10.80;99.90;;;;;;5094716;28;20434;-58
2021/10/14 00:23:50;;;;;;;26.65;12.30;;;10.80;99.90;;;;;;5094801;28;20103;-56
2021/10/14 00:26:16;;;;;;;27.95;11.07;;;10.90;99.90;;;;;;5096142;28;20062;-56
2021/10/14 00:28:41;;;;;;;23.85;12.90;;;10.90;99.90;;;;;;5094611;28;20089;-58
2021/10/14 00:31:07;;;;;;;23.75;11.55;;;10.90;99.90;;;;;;5094470;28;20369;-56
2021/10/14 00:33:32;;;;;;;24.95;11.02;;;10.90;99.90;;;;;;5094770;28;20024;-56
2021/10/14 00:35:58;;;;;;;27.15;11.07;;;11.00;99.90;;;;;;5094597;28;20077;-56
2021/10/14 00:38:23;;;;;;;27.08;12.30;;;10.90;99.90;;;;;;5094525;28;20022;-56
2021/10/14 00:40:49;;;;;;;27.63;12.57;;;10.90;99.90;;;;;;5096377;28;20035;-59
2021/10/14 00:43:15;;;;;;;36.78;12.25;;;10.90;99.90;;;;;;5114890;28;20016;-54
2021/10/14 00:45:40;;;;;;;24.95;12.15;;;10.90;99.90;;;;;;5114886;28;20031;-53
2021/10/14 00:48:06;;;;;;;23.40;11.63;;;10.90;99.90;;;;;;5101778;28;20402;-56
2021/10/14 00:50:32;;;;;;;29.23;12.60;;;10.90;99.90;;;;;;5094191;28;20612;-57
2021/10/14 00:52:57;;;;;;;25.63;11.90;;;10.90;99.90;;;;;;5093726;28;20066;-57
2021/10/14 00:55:23;;;;;;;20.88;11.75;;;10.90;99.90;;;;;;5094210;28;20047;-55
2021/10/14 00:57:49;;;;;;;22.73;11.43;;;10.90;99.90;;;;;;5095314;28;20431;-56
2021/10/14 01:00:15;;;;;;;21.58;10.85;;;11.00;99.90;;;;;;5094022;28;20024;-59
2021/10/14 01:02:42;;;;;;;23.15;11.35;;;11.00;99.90;;;;;;5093914;28;20023;-57
2021/10/14 01:05:08;;;;;;;24.58;11.48;;;11.00;99.90;;;;;;5103625;28;20698;-57
2021/10/14 01:07:34;;;;;;;23.65;11.55;;;11.00;99.90;;;;;;5114533;28;20036;-57
2021/10/14 01:09:59;;;;;;;22.42;11.82;;;11.00;99.90;;;;;;5114477;28;20020;-57
2021/10/14 01:12:26;;;;;;;22.70;11.27;;;11.00;99.90;;;;;;5114057;28;20049;-57
2021/10/14 01:14:52;;;;;;;25.40;10.88;;;11.00;99.90;;;;;;5114196;28;20022;-57
2021/10/14 01:17:17;;;;;;;29.00;12.05;;;11.00;99.90;;;;;;5114240;28;20453;-55
2021/10/14 01:19:44;;;;;;;26.52;10.82;;;11.10;99.90;;;;;;5099670;28;20030;-56
2021/10/14 01:22:10;;;;;;;23.10;11.25;;;11.10;99.90;;;;;;5093480;28;20012;-56
2021/10/14 01:24:36;;;;;;;27.20;12.00;;;11.10;99.90;;;;;;5093445;28;20020;-56
2021/10/14 01:27:06;;;;;;;26.20;10.88;;;11.10;99.90;;;;;;5093375;28;20032;-54
2021/10/14 01:29:33;;;;;;;22.40;11.38;;;11.10;99.90;;;;;;5093625;28;20027;-57
2021/10/14 01:32:00;;;;;;;28.17;12.13;;;11.10;99.90;;;;;;5075106;28;20020;-58
2021/10/14 01:34:25;;;;;;;27.65;10.43;;;11.10;99.90;;;;;;5094499;28;20024;-54
2021/10/14 01:36:51;;;;;;;23.05;10.18;;;11.10;99.90;;;;;;5113837;28;20153;-57
2021/10/14 01:39:17;;;;;;;29.05;10.10;;;11.00;99.90;;;;;;5113852;28;20048;-54
2021/10/14 01:41:47;;;;;;;20.55;10.55;;;11.00;99.90;;;;;;5113397;28;20031;-58
2021/10/14 01:44:14;;;;;;;21.83;9.68;;;11.00;99.90;;;;;;5112008;28;20413;-57
2021/10/14 01:46:40;;;;;;;25.08;10.13;;;11.00;99.90;;;;;;5113554;28;20372;-56
2021/10/14 01:49:07;;;;;;;21.20;10.55;;;11.00;99.90;;;;;;5113642;28;20090;-58
2021/10/14 01:51:32;;;;;;;29.30;11.55;;;11.00;99.90;;;;;;5105391;28;20043;-58
2021/10/14 01:53:58;;;;;;;25.20;11.30;;;10.90;99.90;;;;;;5092077;28;20113;-56
2021/10/14 01:56:23;;;;;;;24.65;11.23;;;10.90;99.90;;;;;;5093018;28;20013;-56
2021/10/14 01:58:49;;;;;;;20.33;10.90;;;10.90;99.90;;;;;;5092999;28;20077;-63
2021/10/14 02:01:14;;;;;;;25.02;10.85;;;10.90;99.90;;;;;;5092718;28;20116;-57
2021/10/14 02:03:40;;;;;;;26.38;10.30;;;10.90;99.90;;;;;;5092856;28;20047;-55
2021/10/14 02:06:05;;;;;;;16.92;10.57;;;10.90;99.90;;;;;;5092917;28;20103;-57
2021/10/14 02:08:31;;;;;;;22.00;10.52;;;10.90;99.90;;;;;;5105946;28;20091;-56
2021/10/14 02:10:56;;;;;;;22.30;10.07;;;10.90;99.90;;;;;;5094258;28;20099;-59
2021/10/14 02:13:22;;;;;;;22.98;10.07;;;10.90;99.90;;;;;;5092827;28;20074;-59
2021/10/14 02:15:47;;;;;;;20.30;10.15;;;11.00;99.90;;;;;;5092631;28;20028;-57
2021/10/14 02:18:13;;;;;;;22.30;10.38;;;11.00;99.90;;;;;;5092580;28;20016;-57
2021/10/14 02:20:39;;;;;;;18.48;10.55;;;10.90;99.90;;;;;;5092328;28;20082;-59
2021/10/14 02:23:04;;;;;;;21.80;10.35;;;10.80;99.90;;;;;;5092897;28;20020;-55
2021/10/14 02:25:30;;;;;;;25.45;10.55;;;10.90;99.90;;;;;;5107649;28;20024;-57
2021/10/14 02:27:56;;;;;;;22.60;10.77;;;10.90;99.90;;;;;;5112736;28;20038;-56
2021/10/14 02:30:21;;;;;;;22.20;10.25;;;10.90;99.90;;;;;;5112772;28;20107;-56
2021/10/14 02:32:47;;;;;;;23.00;9.95;;;10.90;99.90;;;;;;5112497;28;20380;-58
2021/10/14 02:35:12;;;;;;;25.25;11.98;;;10.90;99.90;;;;;;5112695;28;20106;-54
2021/10/14 02:37:38;;;;;;;30.40;12.85;;;11.00;99.90;;;;;;5112683;28;20372;-56
2021/10/14 02:40:05;;;;;;;26.85;11.68;;;11.00;99.90;;;;;;5112704;28;20180;-54
2021/10/14 02:42:31;;;;;;;29.80;10.75;;;11.10;99.90;;;;;;5094809;28;20095;-54
2021/10/14 02:44:57;;;;;;;24.80;12.23;;;11.00;99.90;;;;;;5092225;28;20152;-56
2021/10/14 02:47:22;;;;;;;31.63;12.90;;;10.90;99.90;;;;;;5073975;28;20461;-56
2021/10/14 02:49:48;;;;;;;21.92;12.20;;;10.90;99.90;;;;;;5092124;28;20034;-57
2021/10/14 02:52:13;;;;;;;36.20;12.38;;;10.90;99.90;;;;;;5091807;28;20023;-57
2021/10/14 02:54:39;;;;;;;21.98;11.93;;;10.80;99.90;;;;;;5091457;28;20035;-57
2021/10/14 02:57:05;;;;;;;25.27;12.40;;;10.90;99.90;;;;;;5092998;28;20069;-56
2021/10/14 02:59:30;;;;;;;23.15;11.80;;;10.90;99.90;;;;;;5092056;28;20020;-55
2021/10/14 03:01:56;;;;;;;30.67;11.68;;;10.90;99.90;;;;;;5091720;28;20016;-54
2021/10/14 03:04:21;;;;;;;22.98;11.50;;;10.90;99.90;;;;;;5096022;28;20508;-56
2021/10/14 03:06:47;;;;;;;20.88;11.35;;;11.00;99.90;;;;;;5112157;28;20099;-55
2021/10/14 03:09:13;;;;;;;27.88;11.45;;;10.90;99.90;;;;;;5112241;28;20022;-57
2021/10/14 03:11:39;;;;;;;27.35;11.43;;;10.90;99.90;;;;;;5111859;28;20024;-58
2021/10/14 03:14:05;;;;;;;22.33;12.30;;;10.90;99.90;;;;;;5112244;28;20027;-58
2021/10/14 03:16:30;;;;;;;19.58;10.52;;;10.90;99.90;;;;;;5112079;28;20020;-55
2021/10/14 03:18:56;;;;;;;25.33;12.63;;;10.90;99.90;;;;;;5103993;28;20108;-58
2021/10/14 03:21:22;;;;;;;23.15;10.35;;;11.00;99.90;;;;;;5091584;28;20480;-58
2021/10/14 03:23:48;;;;;;;26.70;12.07;;;11.00;99.90;;;;;;5091643;28;20185;-56
2021/10/14 03:26:14;;;;;;;31.20;12.40;;;11.00;99.90;;;;;;5091757;28;20016;-58
2021/10/14 03:28:40;;;;;;;31.42;11.27;;;11.10;99.90;;;;;;5104831;22;20040;-60
2021/10/14 03:31:05;;;;;;;22.75;10.45;;;11.10;99.90;;;;;;5090073;28;20108;-61
2021/10/14 03:33:31;;;;;;;17.35;10.20;;;11.20;99.90;;;;;;5089769;28;20381;-57
2021/10/14 03:35:56;;;;;;;21.00;10.82;;;11.20;99.90;;;;;;5089831;28;20028;-60
2021/10/14 03:38:22;;;;;;;26.23;11.30;;;11.20;99.90;;;;;;5102667;28;20523;-62
2021/10/14 03:40:48;;;;;;;28.73;11.73;;;11.10;99.90;;;;;;5110348;28;20031;-60
2021/10/14 03:43:14;;;;;;;27.27;11.30;;;11.10;99.90;;;;;;5110959;28;20026;-60
2021/10/14 03:45:40;;;;;;;36.97;12.55;;;11.00;99.90;;;;;;5111158;28;20368;-60
2021/10/14 03:48:05;;;;;;;24.10;11.40;;;10.90;99.90;;;;;;5110445;28;20022;-61
2021/10/14 03:50:31;;;;;;;22.33;10.80;;;10.90;99.90;;;;;;5110735;28;20031;-60
2021/10/14 03:52:57;;;;;;;22.90;10.60;;;10.90;99.90;;;;;;5080110;28;20036;-59
2021/10/14 03:55:22;;;;;;;21.42;9.55;;;10.90;99.90;;;;;;5090117;28;20020;-60
2021/10/14 03:57:48;;;;;;;19.90;9.40;;;10.90;99.90;;;;;;5090116;28;20427;-60
2021/10/14 04:00:14;;;;;;;21.65;9.80;;;10.90;99.90;;;;;;5090174;28;20485;-61
2021/10/14 04:02:39;;;;;;;23.65;10.15;;;11.00;99.90;;;;;;5089605;28;20020;-61
2021/10/14 04:05:06;;;;;;;21.48;9.40;;;11.00;99.90;;;;;;5090176;28;20060;-60
2021/10/14 04:07:31;;;;;;;22.33;9.75;;;10.90;99.90;;;;;;5089646;28;20118;-62
2021/10/14 04:09:57;;;;;;;24.65;8.43;;;11.00;99.90;;;;;;5107083;28;20099;-60
2021/10/14 04:12:23;;;;;;;21.52;9.30;;;11.00;99.90;;;;;;5110019;28;20119;-60
2021/10/14 04:14:49;;;;;;;23.10;9.18;;;11.00;99.90;;;;;;5104119;28;20497;-62
2021/10/14 04:17:14;;;;;;;27.50;9.15;;;11.00;99.90;;;;;;5092816;28;20024;-62
2021/10/14 04:19:40;;;;;;;18.77;8.77;;;11.00;99.90;;;;;;5094240;28;20087;-62
2021/10/14 04:22:05;;;;;;;16.48;9.02;;;11.00;99.90;;;;;;5093428;28;20016;-60
2021/10/14 04:24:32;;;;;;;23.35;8.93;;;11.00;99.90;;;;;;5093515;28;20023;-62
2021/10/14 04:26:58;;;;;;;19.10;8.85;;;11.00;99.90;;;;;;5094558;28;20340;-61
2021/10/14 04:29:23;;;;;;;22.25;8.23;;;11.00;99.90;;;;;;5093482;28;20119;-58
2021/10/14 04:31:49;;;;;;;23.67;9.68;;;11.00;99.90;;;;;;5093047;28;20028;-61
2021/10/14 04:34:16;;;;;;;28.42;9.85;;;11.00;99.90;;;;;;5093914;28;20024;-61
2021/10/14 04:36:42;;;;;;;33.03;11.40;;;10.90;99.90;;;;;;5093318;28;20038;-60
2021/10/14 04:39:08;;;;;;;27.95;11.45;;;10.80;99.90;;;;;;5092731;28;20367;-60
2021/10/14 04:41:35;;;;;;;22.67;12.38;;;10.70;99.90;;;;;;5093781;28;20025;-59
2021/10/14 04:44:01;;;;;;;27.15;11.30;;;10.70;99.90;;;;;;5093786;28;20542;-60
2021/10/14 04:46:26;;;;;;;27.83;12.20;;;10.70;99.90;;;;;;5092995;28;20105;-60
2021/10/14 04:48:52;;;;;;;31.73;11.90;;;10.60;99.90;;;;;;5093067;28;20050;-60
2021/10/14 04:51:18;;;;;;;25.17;11.73;;;10.60;99.90;;;;;;5092424;28;20377;-61
2021/10/14 04:53:43;;;;;;;26.75;11.95;;;10.60;99.90;;;;;;5093578;28;20024;-60
2021/10/14 04:56:09;;;;;;;29.52;12.32;;;10.60;99.90;;;;;;5093029;28;20024;-60
2021/10/14 04:58:34;;;;;;;22.75;11.60;;;10.60;99.90;;;;;;5099009;28;20032;-61
2021/10/14 05:01:00;;;;;;;30.27;10.60;;;10.70;99.90;;;;;;5113300;28;20015;-60
2021/10/14 05:03:25;;;;;;;23.05;10.40;;;10.70;99.90;;;;;;5113026;28;20020;-60
2021/10/14 05:05:51;;;;;;;32.78;13.13;;;10.70;99.90;;;;;;5094902;28;20086;-58
2021/10/14 05:08:16;;;;;;;22.77;10.85;;;10.70;99.90;;;;;;5093246;28;20019;-59
2021/10/14 05:10:42;;;;;;;35.40;13.10;;;10.60;99.90;;;;;;5091902;28;20094;-57
2021/10/14 05:13:08;;;;;;;28.20;12.70;;;10.60;99.90;;;;;;5092621;28;20079;-59
2021/10/14 05:15:35;;;;;;;32.92;13.88;;;10.60;99.90;;;;;;5092483;28;20028;-58
2021/10/14 05:18:00;;;;;;;32.97;13.45;;;10.50;99.90;;;;;;5092533;28;20531;-59
2021/10/14 05:20:26;;;;;;;30.20;12.18;;;10.50;99.90;;;;;;5112860;28;20032;-60
2021/10/14 05:22:51;;;;;;;27.58;12.43;;;10.50;99.90;;;;;;5112495;28;20020;-61
2021/10/14 05:25:17;;;;;;;28.80;11.77;;;10.60;99.90;;;;;;5113380;28;20054;-60
2021/10/14 05:27:43;;;;;;;37.28;11.45;;;10.70;99.90;;;;;;5111052;28;20023;-60
2021/10/14 05:30:09;;;;;;;37.03;11.27;;;10.70;99.90;;;;;;5112708;28;20089;-62
2021/10/14 05:32:35;;;;;;;23.77;11.70;;;10.80;99.90;;;;;;5112344;28;20102;-59
2021/10/14 05:35:01;;;;;;;26.92;11.07;;;10.80;99.90;;;;;;5094940;28;20538;-59
2021/10/14 05:37:28;;;;;;;43.65;12.68;;;10.80;99.90;;;;;;5092092;28;20111;-62
2021/10/14 05:39:54;;;;;;;35.10;12.85;;;10.90;99.90;;;;;;5092244;28;20020;-62
2021/10/14 05:42:19;;;;;;;38.28;11.82;;;10.90;99.90;;;;;;5092396;28;20077;-62
2021/10/14 05:44:45;;;;;;;22.80;11.40;;;10.90;99.90;;;;;;5091918;28;20454;-60
2021/10/14 05:47:11;;;;;;;31.77;12.60;;;10.90;99.90;;;;;;5091637;28;20028;-59
2021/10/14 05:49:36;;;;;;;31.38;13.40;;;10.90;99.90;;;;;;5092545;28;20032;-56
2021/10/14 05:52:02;;;;;;;27.92;13.07;;;10.90;99.90;;;;;;5102161;28;20545;-59
2021/10/14 05:54:28;;;;;;;24.42;12.15;;;10.90;99.90;;;;;;5112142;28;20034;-61
2021/10/14 05:56:53;;;;;;;34.28;12.52;;;10.90;99.90;;;;;;5112091;28;20027;-60
2021/10/14 05:59:19;;;;;;;33.40;13.07;;;11.00;99.90;;;;;;5082463;28;20015;-61
2021/10/14 06:01:44;;;;;;;30.25;12.10;;;11.00;99.90;;;;;;5091357;28;20023;-58
2021/10/14 06:04:10;;;;;;;38.17;13.85;;;11.00;99.90;;;;;;5091164;28;20100;-58
2021/10/14 06:06:35;;;;;;;36.00;11.35;;;11.00;99.90;;;;;;5091567;28;20024;-60
2021/10/14 06:09:01;;;;;;;20.15;10.73;;;11.00;99.90;;;;;;5091710;28;20081;-59
2021/10/14 06:11:26;;;;;;;25.13;9.70;;;11.00;99.90;;;;;;5091222;28;20023;-60
2021/10/14 06:13:52;;;;;;;23.00;10.07;;;11.10;99.90;;;;;;5091133;28;20034;-59
2021/10/14 06:16:17;;;;;;;28.50;11.35;;;11.00;99.90;;;;;;5090941;28;20061;-58
2021/10/14 06:18:43;;;;;;;29.40;10.70;;;11.00;99.90;;;;;;5091332;28;20023;-60
2021/10/14 06:21:08;;;;;;;23.35;10.05;;;11.00;99.90;;;;;;5091300;28;20058;-59
2021/10/14 06:23:34;;;;;;;25.00;10.48;;;11.00;99.90;;;;;;5091319;28;20484;-61
2021/10/14 06:26:00;;;;;;;33.90;9.57;;;11.00;99.90;;;;;;5092080;28;20024;-59
2021/10/14 06:28:26;;;;;;;21.08;8.43;;;11.00;99.90;;;;;;5090389;28;20119;-57
2021/10/14 06:30:52;;;;;;;24.60;10.40;;;11.00;99.90;;;;;;5090827;28;20111;-59
2021/10/14 06:33:17;;;;;;;29.30;9.07;;;11.00;99.90;;;;;;5091455;28;20401;-58
2021/10/14 06:35:43;;;;;;;22.75;8.88;;;11.00;99.90;;;;;;5090913;28;20017;-59
2021/10/14 06:38:09;;;;;;;21.88;7.90;;;11.00;99.90;;;;;;5090589;28;20087;-61
2021/10/14 06:40:34;;;;;;;23.60;8.20;;;11.00;99.90;;;;;;5095004;28;20023;-59
2021/10/14 06:43:00;;;;;;;19.00;7.82;;;11.00;99.90;;;;;;5110489;28;20059;-58
2021/10/14 06:45:26;;;;;;;14.98;7.45;;;11.10;99.90;;;;;;5111690;28;20030;-61
2021/10/14 06:47:51;;;;;;;19.45;7.90;;;11.00;99.90;;;;;;5111184;28;20541;-59
2021/10/14 06:50:17;;;;;;;17.67;7.93;;;11.00;99.90;;;;;;5111616;28;20438;-58
2021/10/14 06:52:43;;;;;;;20.65;8.15;;;11.10;99.90;;;;;;5110984;28;20019;-59
2021/10/14 06:55:09;;;;;;;17.52;8.13;;;11.10;99.90;;;;;;5101572;28;20012;-59
2021/10/14 06:57:34;;;;;;;19.13;7.60;;;11.10;99.90;;;;;;5097700;28;20027;-59
2021/10/14 07:00:00;;;;;;;14.55;7.05;;;11.10;99.90;;;;;;5110933;28;20016;-60
2021/10/14 07:02:26;;;;;;;19.23;7.63;;;11.20;99.90;;;;;;5108928;28;20016;-59
2021/10/14 07:04:51;;;;;;;18.02;7.55;;;11.20;99.90;;;;;;5101694;28;20119;-60
2021/10/14 07:07:17;;;;;;;28.30;7.85;;;11.20;99.90;;;;;;5089809;28;20542;-60
2021/10/14 07:09:42;;;;;;;18.58;8.02;;;11.20;99.90;;;;;;5090702;28;20028;-60
2021/10/14 07:12:10;;;;;;;20.17;8.68;;;11.20;99.90;;;;;;5089804;28;20040;-60
2021/10/14 07:14:40;;;;;;;23.35;9.57;;;11.20;99.90;;;;;;5090404;28;20462;-60
2021/10/14 07:17:06;;;;;;;16.10;9.30;;;11.20;99.90;;;;;;5090874;28;20077;-61
2021/10/14 07:19:31;;;;;;;25.17;9.73;;;11.20;99.90;;;;;;5102590;28;20016;-60
2021/10/14 07:21:57;;;;;;;26.23;8.32;;;11.20;99.90;;;;;;5110525;28;20065;-60
2021/10/14 07:24:24;;;;;;;16.92;8.98;;;11.20;99.90;;;;;;5110687;28;20020;-59
2021/10/14 07:26:49;;;;;;;20.35;8.95;;;11.20;99.90;;;;;;5099652;28;20042;-62
2021/10/14 07:29:15;;;;;;;20.75;10.05;;;11.20;99.90;;;;;;5089718;28;20110;-59
2021/10/14 07:31:41;;;;;;;17.98;8.57;;;11.30;99.90;;;;;;5090005;28;20024;-60
2021/10/14 07:34:06;;;;;;;23.73;10.43;;;11.20;99.90;;;;;;5090223;28;20047;-60
2021/10/14 07:36:32;;;;;;;18.60;9.30;;;11.20;99.90;;;;;;5107538;28;20050;-59
2021/10/14 07:38:58;;;;;;;21.95;10.13;;;11.30;99.90;;;;;;5110650;28;20083;-59
2021/10/14 07:41:24;;;;;;;21.70;9.82;;;11.30;99.90;;;;;;5110265;28;20042;-60
2021/10/14 07:43:49;;;;;;;17.10;10.07;;;11.30;99.90;;;;;;5110538;28;20034;-60
2021/10/14 07:46:15;;;;;;;21.98;10.63;;;11.30;99.90;;;;;;5110174;28;20008;-59
2021/10/14 07:48:41;;;;;;;29.95;10.63;;;11.40;99.90;;;;;;5110447;28;20337;-59
2021/10/14 07:51:07;;;;;;;19.17;10.35;;;11.40;99.90;;;;;;5111749;28;20051;-61
2021/10/14 07:53:33;;;;;;;22.65;10.52;;;11.40;99.90;;;;;;5095857;28;20032;-59
2021/10/14 07:55:59;;;;;;;24.90;10.85;;;11.40;99.90;;;;;;5093826;28;20031;-59
2021/10/14 07:58:24;;;;;;;23.95;11.07;;;11.40;99.90;;;;;;5093515;28;20870;-57
2021/10/14 08:00:50;;;;;;;19.92;10.23;;;11.50;99.90;;;;;;5093823;28;20021;-60
2021/10/14 08:03:17;;;;;;;18.60;10.20;;;11.50;99.90;;;;;;5093580;28;20074;-59
2021/10/14 08:05:42;;;;;;;20.83;9.90;;;11.50;99.90;;;;;;5093930;28;20020;-56
2021/10/14 08:08:08;;;;;;;25.15;10.63;;;11.50;99.90;;;;;;5095730;28;20106;-57
2021/10/14 08:10:34;;;;;;;23.75;10.52;;;11.60;99.90;;;;;;5108450;28;20044;-58
2021/10/14 08:12:59;;;;;;;19.42;10.48;;;11.60;99.90;;;;;;5093949;28;20469;-60
2021/10/14 08:15:25;;;;;;;23.15;10.20;;;11.70;99.90;;;;;;5094020;28;20046;-59
2021/10/14 08:17:51;;;;;;;19.40;10.02;;;11.70;99.90;;;;;;5093743;28;20083;-59
2021/10/14 08:20:17;;;;;;;23.42;9.93;;;11.80;99.90;;;;;;5093129;28;20050;-59
2021/10/14 08:22:42;;;;;;;19.92;9.73;;;11.80;99.90;;;;;;5093770;28;20020;-60
2021/10/14 08:25:12;;;;;;;25.00;10.48;;;11.80;99.90;;;;;;5094494;28;20031;-58
2021/10/14 08:27:38;;;;;;;18.58;9.48;;;11.90;99.90;;;;;;5092774;28;20032;-60
2021/10/14 08:30:05;;;;;;;23.20;10.32;;;12.00;99.90;;;;;;5093475;28;20027;-59
2021/10/14 08:32:31;;;;;;;21.48;11.45;;;12.00;99.90;;;;;;5093066;28;20024;-60
2021/10/14 08:34:56;;;;;;;21.95;11.15;;;12.00;99.90;;;;;;5093406;28;20031;-58
2021/10/14 08:37:22;;;;;;;21.52;12.00;;;12.00;99.90;;;;;;5092861;28;20020;-59
2021/10/14 08:39:49;;;;;;;30.05;12.25;;;12.00;99.90;;;;;;5093056;28;20024;-59
2021/10/14 08:42:15;;;;;;;23.42;12.90;;;12.00;99.90;;;;;;5094467;28;20373;-59
2021/10/14 08:44:41;;;;;;;29.27;13.82;;;11.90;99.90;;;;;;5093131;28;20016;-61
2021/10/14 08:47:07;;;;;;;27.00;14.52;;;11.90;99.90;;;;;;5092630;28;20035;-59
2021/10/14 08:49:33;;;;;;;30.58;14.32;;;11.90;99.90;;;;;;5093477;28;20393;-59
2021/10/14 08:51:59;;;;;;;31.58;14.95;;;12.00;99.90;;;;;;5092509;28;20040;-59
2021/10/14 08:54:24;;;;;;;30.00;16.40;;;12.00;99.90;;;;;;5092664;28;20020;-59
2021/10/14 08:56:50;;;;;;;33.38;15.63;;;12.00;99.90;;;;;;5092915;28;20023;-59
2021/10/14 08:59:20;;;;;;;30.85;14.55;;;11.90;99.90;;;;;;5107023;28;20042;-60
2021/10/14 09:02:14;;;;;;;34.90;17.02;;;11.90;99.90;;;;;;5094379;28;20020;-59
2021/10/14 09:04:49;;;;;;;34.33;17.00;;;11.90;99.90;;;;;;5105702;28;20027;-57
2021/10/14 09:07:16;;;;;;;31.63;16.08;;;12.00;99.90;;;;;;5092646;28;20024;-60
2021/10/14 09:09:42;;;;;;;33.70;17.17;;;12.10;99.90;;;;;;5092687;28;20031;-59
2021/10/14 09:12:10;;;;;;;34.58;17.42;;;12.20;99.90;;;;;;5092569;28;20035;-59
2021/10/14 09:14:55;;;;;;;32.08;16.35;;;12.20;99.90;;;;;;5092514;28;20020;-58
2021/10/14 09:17:43;;;;;;;35.45;17.00;;;12.30;99.90;;;;;;5073808;28;20024;-59
2021/10/14 09:20:25;;;;;;;31.48;16.13;;;12.40;99.90;;;;;;5110329;28;20191;-61
2021/10/14 09:22:57;;;;;;;38.50;16.73;;;12.40;99.90;;;;;;5094659;28;20099;-57
2021/10/14 09:25:38;;;;;;;32.42;17.35;;;12.40;99.90;;;;;;5092483;28;20049;-62
2021/10/14 09:28:06;;;;;;;46.75;18.30;;;12.30;99.90;;;;;;5100160;22;21170;-55
2021/10/14 09:30:32;;;;;;;33.90;18.73;;;12.30;99.90;;;;;;5067949;28;20043;-60
2021/10/14 09:32:57;;;;;;;33.33;18.77;;;12.20;99.90;;;;;;5051496;28;20017;-58
2021/10/14 09:35:24;;;;;;;40.20;19.88;;;12.20;99.90;;;;;;5057879;28;20027;-57
2021/10/14 09:37:50;;;;;;;50.67;21.13;;;12.20;99.90;;;;;;5071822;28;20078;-57
2021/10/14 09:40:15;;;;;;;39.72;19.95;;;12.30;99.90;;;;;;5071854;28;20036;-56
2021/10/14 09:42:57;;;;;;;43.20;22.48;;;12.30;99.90;;;;;;5071251;28;20077;-57
2021/10/14 09:45:31;;;;;;;41.20;22.05;;;12.30;99.90;;;;;;5071841;28;20047;-58
2021/10/14 09:48:02;;;;;;;44.70;22.95;;;12.20;99.90;;;;;;5071268;28;20024;-59
2021/10/14 09:50:30;;;;;;;45.90;23.67;;;12.20;99.90;;;;;;5071555;28;20482;-58
2021/10/14 09:52:58;;;;;;;50.65;23.00;;;12.30;99.90;;;;;;5059631;28;20025;-59
2021/10/14 09:55:24;;;;;;;42.65;22.27;;;12.20;99.90;;;;;;5053377;28;20025;-58
2021/10/14 09:57:50;;;;;;;48.78;22.63;;;12.30;99.90;;;;;;5071009;28;20100;-58
2021/10/14 10:00:15;;;;;;;54.42;22.77;;;12.40;99.90;;;;;;5071949;28;20103;-55
2021/10/14 10:02:44;;;;;;;44.17;21.08;;;12.40;99.90;;;;;;5070751;28;20025;-56
2021/10/14 10:05:11;;;;;;;50.33;22.60;;;12.60;99.90;;;;;;5069966;28;20027;-59
2021/10/14 10:07:39;;;;;;;39.55;20.08;;;12.70;99.90;;;;;;5071225;28;20041;-58
2021/10/14 10:10:06;;;;;;;43.22;21.42;;;12.80;99.90;;;;;;5053601;28;20017;-58
2021/10/14 10:12:34;;;;;;;39.85;20.85;;;12.80;99.90;;;;;;5054939;28;20090;-57
2021/10/14 10:15:00;;;;;;;41.70;19.83;;;13.00;99.90;;;;;;5070682;28;20520;-54
2021/10/14 10:17:40;;;;;;;42.25;19.92;;;13.10;99.90;;;;;;5070830;28;20021;-58
2021/10/14 10:20:08;;;;;;;36.95;18.23;;;13.20;99.90;;;;;;5071561;28;20056;-58
2021/10/14 10:22:33;;;;;;;38.08;17.27;;;13.20;99.90;;;;;;5070578;28;20021;-56
2021/10/14 10:25:23;;;;;;;35.53;18.73;;;13.20;99.90;;;;;;5069418;28;20422;-58
2021/10/14 10:27:49;;;;;;;38.58;16.55;;;13.30;99.90;;;;;;5071429;28;20030;-59
2021/10/14 10:30:28;;;;;;;35.30;16.30;;;13.40;99.90;;;;;;5090603;28;20027;-58
2021/10/14 10:32:54;;;;;;;36.25;15.88;;;13.50;99.90;;;;;;5090558;28;20023;-57
2021/10/14 10:35:39;;;;;;;37.97;16.00;;;13.60;99.90;;;;;;5091061;28;20020;-59
2021/10/14 10:38:23;;;;;;;30.55;15.00;;;13.80;99.90;;;;;;5091045;28;20016;-58
2021/10/14 10:40:51;;;;;;;31.60;14.40;;;13.80;99.90;;;;;;5089554;28;20103;-58
2021/10/14 10:43:26;;;;;;;29.27;14.35;;;13.80;99.90;;;;;;5071315;28;20012;-58
2021/10/14 10:45:56;;;;;;;36.42;14.63;;;13.80;99.90;;;;;;5072025;28;20486;-60
2021/10/14 10:48:36;;;;;;;34.60;15.25;;;13.80;99.90;;;;;;5071917;28;20111;-59
2021/10/14 10:51:02;;;;;;;25.55;12.35;;;13.90;99.90;;;;;;5053512;28;20028;-58
2021/10/14 10:53:57;;;;;;;23.65;12.57;;;14.10;99.90;;;;;;5037714;28;20127;-60
2021/10/14 10:56:34;;;;;;;26.85;12.25;;;14.20;99.90;;;;;;5038126;28;20036;-57
2021/10/14 10:59:01;;;;;;;32.35;12.73;;;14.20;99.90;;;;;;5089752;28;20148;-58
2021/10/14 11:01:28;;;;;;;23.90;10.30;;;14.20;99.90;;;;;;5056813;28;20070;-57
2021/10/14 11:03:55;;;;;;;21.77;12.05;;;14.30;99.90;;;;;;5072399;28;20047;-58
2021/10/14 11:06:21;;;;;;;27.02;12.25;;;14.20;99.90;;;;;;5071810;28;20021;-59
2021/10/14 11:08:47;;;;;;;29.55;10.57;;;14.20;99.90;;;;;;5036951;28;20043;-60
2021/10/14 11:11:17;;;;;;;31.65;12.98;;;14.20;99.90;;;;;;5053455;28;20478;-59
2021/10/14 11:13:47;;;;;;;25.58;11.27;;;14.20;99.90;;;;;;5054128;28;20093;-58
2021/10/14 11:16:14;;;;;;;27.27;10.57;;;14.20;99.90;;;;;;5071457;28;20544;-54
2021/10/14 11:18:43;;;;;;;24.90;9.77;;;14.10;99.90;;;;;;5059047;28;20153;-57
2021/10/14 11:21:12;;;;;;;23.20;9.10;;;14.20;99.90;;;;;;5091425;28;20103;-58
2021/10/14 11:23:45;;;;;;;23.20;8.50;;;14.20;99.90;;;;;;5043004;28;20051;-56
2021/10/14 11:26:36;;;;;;;32.80;9.40;;;14.20;99.90;;;;;;5075094;28;20557;-55
2021/10/14 11:29:16;;;;;;;24.55;8.77;;;14.20;99.90;;;;;;5095882;28;20040;-55
2021/10/14 11:31:45;;;;;;;20.48;8.52;;;14.20;99.90;;;;;;5095491;28;20498;-56
2021/10/14 11:34:22;;;;;;;19.70;10.23;;;14.30;99.90;;;;;;5078229;28;20066;-57
2021/10/14 11:36:58;;;;;;;25.30;8.65;;;14.30;99.90;;;;;;5076719;28;20024;-59
2021/10/14 11:39:33;;;;;;;21.60;8.57;;;14.30;99.90;;;;;;5060798;28;20107;-60
2021/10/14 11:42:01;;;;;;;20.73;9.00;;;14.30;99.90;;;;;;5077308;28;20028;-58
2021/10/14 11:44:29;;;;;;;22.65;8.65;;;14.40;99.90;;;;;;5077390;28;20107;-59
2021/10/14 11:46:56;;;;;;;20.75;7.85;;;14.40;99.90;;;;;;5077531;28;20061;-59
2021/10/14 11:49:22;;;;;;;18.00;7.45;;;14.40;99.90;;;;;;5095361;28;20043;-60
2021/10/14 11:51:50;;;;;;;29.52;10.43;;;14.40;99.90;;;;;;5089814;28;20024;-58
2021/10/14 11:54:17;;;;;;;30.52;10.65;;;14.30;99.90;;;;;;5057149;28;20030;-58
2021/10/14 11:57:09;;;;;;;24.10;10.50;;;14.30;99.90;;;;;;5075060;28;20095;-60
2021/10/14 11:59:36;;;;;;;22.67;10.13;;;14.20;99.90;;;;;;5056656;28;20032;-60
2021/10/14 12:02:18;;;;;;;26.58;9.38;;;14.30;99.90;;;;;;5043785;28;20048;-57
2021/10/14 12:04:49;;;;;;;19.40;8.73;;;14.30;99.90;;;;;;5077185;28;20077;-57
2021/10/14 12:07:19;;;;;;;23.80;8.55;;;14.30;99.90;;;;;;5095358;28;20093;-58
2021/10/14 12:09:45;;;;;;;21.05;8.85;;;14.40;99.90;;;;;;5059932;28;20028;-55
2021/10/14 12:12:15;;;;;;;22.20;8.88;;;14.40;99.90;;;;;;5076693;28;20081;-58
2021/10/14 12:14:40;;;;;;;19.65;8.05;;;14.40;99.90;;;;;;5060420;28;20485;-58
2021/10/14 12:17:14;;;;;;;15.40;8.20;;;14.50;99.90;;;;;;5063748;28;20036;-54
2021/10/14 12:19:49;;;;;;;16.67;7.85;;;14.50;99.90;;;;;;5056712;28;20025;-58
2021/10/14 12:22:17;;;;;;;21.52;8.00;;;14.50;99.90;;;;;;5074432;28;20166;-58
2021/10/14 12:25:00;;;;;;;16.38;6.15;;;14.50;99.90;;;;;;5056862;28;20115;-59
2021/10/14 12:27:55;;;;;;;12.18;6.22;;;14.60;99.90;;;;;;5076587;28;20028;-59
2021/10/14 12:30:21;;;;;;;18.85;6.47;;;14.70;99.90;;;;;;5094797;28;20036;-58